Time;durP1;ratioP1;P1;durP2;ratioP2;P2;SDS_P1;SDS_P2;PMS_P1;PMS_P2;Temp;Humidity;BMP_temperature;BMP_pressure;BME280_temperature;BME280_humidity;BME280_pressure;Samples;Min_cycle;Max_cycle;Signal;HPM_P1;HPM_P2
2023/05/15 00:02:08;;;;;;;;;;;15.90;34.50;;;14.95;34.08;100824.69;12257178;19;19947;-83
2023/05/15 00:06:09;;;;;;;;;;;15.90;34.50;;;15.07;33.83;100835.28;12262556;19;19924;-83
2023/05/15 00:10:11;;;;;;;;;;;15.90;34.50;;;15.02;34.03;100833.84;12258929;19;19923;-83
2023/05/15 00:14:13;;;;;;;;;;;15.90;34.50;;;14.85;33.96;100823.69;12263375;19;19919;-83
2023/05/15 00:18:14;;;;;;;;;;;15.80;34.40;;;14.79;33.90;100814.44;12261999;19;19919;-83
2023/05/15 00:22:16;;;;;;;;;;;15.80;34.50;;;14.79;34.11;100808.34;12256045;19;19927;-83
2023/05/15 00:26:17;;;;;;;;;;;15.70;34.50;;;14.72;34.14;100815.84;12260029;19;19918;-84
2023/05/15 00:30:19;;;;;;;;;;;15.70;34.60;;;14.71;34.13;100810.69;12258716;19;19928;-83
2023/05/15 00:34:21;;;;;;;;;;;15.60;34.90;;;14.64;34.16;100815.56;12256226;19;19915;-83
2023/05/15 00:38:23;;;;;;;;;;;15.50;34.80;;;14.56;34.30;100813.47;12256985;19;19937;-83
2023/05/15 00:42:25;;;;;;;;;;;15.50;34.70;;;14.44;34.28;100797.69;12254809;19;20331;-83
2023/05/15 00:46:27;;;;;;;;;;;15.40;34.70;;;14.31;34.18;100776.66;12255601;19;19923;-82
2023/05/15 00:50:31;;;;;;;;;;;15.30;34.70;;;14.44;34.44;100802.94;12257654;19;19923;-83
2023/05/15 00:54:32;;;;;;;;;;;15.30;34.80;;;14.35;34.50;100786.03;12257766;19;19928;-83
2023/05/15 00:58:35;;;;;;;;;;;15.30;34.80;;;14.32;34.44;100784.47;12256794;19;20333;-83
2023/05/15 01:02:37;;;;;;;;;;;15.20;34.80;;;14.26;34.57;100770.94;12253602;19;19931;-83
2023/05/15 01:06:39;;;;;;;;;;;15.30;34.90;;;14.32;34.49;100783.63;12257450;19;19918;-83
2023/05/15 01:10:41;;;;;;;;;;;15.20;34.90;;;14.20;34.69;100766.91;12257285;19;20348;-83
2023/05/15 01:14:43;;;;;;;;;;;15.20;35.10;;;14.23;34.66;100779.00;12254758;19;19970;-83
2023/05/15 01:18:44;;;;;;;;;;;15.20;35.00;;;14.21;34.69;100780.91;12255213;19;19950;-83
2023/05/15 01:23:10;;;;;;;;;;;15.10;35.40;;;14.07;34.70;100780.06;12254279;19;19918;-83
2023/05/15 01:27:21;;;;;;;;;;;15.10;35.10;;;13.93;34.76;100783.66;12254906;19;19919;-82
2023/05/15 01:31:25;;;;;;;;;;;15.00;35.10;;;13.83;34.75;100779.13;12249505;19;19986;-83
2023/05/15 01:35:40;;;;;;;;;;;14.80;35.00;;;13.78;34.78;100786.47;12255016;19;20284;-83
2023/05/15 01:39:46;;;;;;;;;;;14.80;35.10;;;13.71;34.78;100773.75;12256724;19;19934;-83
2023/05/15 01:43:59;;;;;;;;;;;14.70;35.10;;;13.58;35.01;100754.53;12258981;19;19925;-82
2023/05/15 01:48:05;;;;;;;;;;;14.60;35.20;;;13.68;34.96;100760.84;12258655;19;19923;-83
2023/05/15 01:52:11;;;;;;;;;;;14.60;35.20;;;13.67;34.93;100764.41;12251178;19;19915;-83
2023/05/15 01:56:14;;;;;;;;;;;14.60;35.20;;;13.63;34.91;100762.09;12253245;19;20309;-83
2023/05/15 02:00:16;;;;;;;;;;;14.60;35.10;;;13.55;35.02;100756.53;12253063;19;20257;-83
2023/05/15 02:04:18;;;;;;;;;;;14.50;35.30;;;13.50;35.06;100752.44;12254078;19;19911;-83
2023/05/15 02:08:21;;;;;;;;;;;14.50;35.30;;;13.36;35.09;100736.75;12254587;19;19922;-83
2023/05/15 02:12:23;;;;;;;;;;;14.40;35.40;;;13.25;34.94;100741.84;12256353;19;19926;-83
2023/05/15 02:16:25;;;;;;;;;;;14.30;35.30;;;13.17;35.19;100739.72;12267242;19;19919;-83
2023/05/15 02:20:26;;;;;;;;;;;14.20;35.20;;;13.04;35.11;100731.84;12266600;19;19927;-83
2023/05/15 02:24:28;;;;;;;;;;;14.10;35.30;;;13.09;35.13;100746.44;12268111;19;19967;-83
2023/05/15 02:28:44;;;;;;;;;;;14.00;35.50;;;12.92;35.20;100726.56;12261294;19;21342;-83
2023/05/15 02:33:24;;;;;;;;;;;14.00;35.30;;;12.89;35.34;100716.28;12260954;19;19923;-83
2023/05/15 02:37:30;;;;;;;;;;;13.90;35.40;;;12.92;35.37;100723.94;12261535;19;20365;-83
2023/05/15 02:41:34;;;;;;;;;;;13.90;35.40;;;12.90;35.42;100720.56;12261221;19;19926;-83
2023/05/15 02:45:35;;;;;;;;;;;13.90;35.40;;;12.87;35.41;100718.16;12267097;19;19926;-83
2023/05/15 02:49:38;;;;;;;;;;;13.80;35.50;;;12.89;35.44;100716.28;12266780;19;19950;-83
2023/05/15 02:53:40;;;;;;;;;;;13.90;35.50;;;12.88;35.36;100704.09;12269443;19;20344;-83
2023/05/15 02:57:42;;;;;;;;;;;13.80;35.50;;;12.84;35.58;100698.22;12268351;19;19974;-84
2023/05/15 03:01:48;;;;;;;;;;;13.80;35.60;;;12.76;35.54;100685.63;12266085;19;19915;-83
2023/05/15 03:05:50;;;;;;;;;;;13.80;35.60;;;12.86;35.62;100692.91;12264922;19;19911;-83
2023/05/15 03:09:51;;;;;;;;;;;13.90;35.60;;;12.76;35.62;100682.16;12264034;19;19930;-83
2023/05/15 03:13:53;;;;;;;;;;;13.80;35.60;;;12.66;35.66;100660.94;12268520;19;19925;-84
2023/05/15 03:17:54;;;;;;;;;;;13.80;35.60;;;12.68;35.78;100661.69;12265791;19;19923;-83
2023/05/15 03:21:56;;;;;;;;;;;13.80;35.60;;;12.72;35.65;100689.41;12262360;19;19950;-83
2023/05/15 03:25:58;;;;;;;;;;;13.90;35.90;;;12.64;35.61;100683.81;12268861;19;19938;-83
2023/05/15 03:30:00;;;;;;;;;;;13.70;35.60;;;12.61;35.78;100684.84;12268125;19;20336;-82
2023/05/15 03:34:01;;;;;;;;;;;13.60;35.50;;;12.55;35.73;100673.91;12268609;19;19915;-82
2023/05/15 03:38:02;;;;;;;;;;;13.80;36.10;;;12.50;35.90;100668.97;12267978;19;20275;-83
2023/05/15 03:42:04;;;;;;;;;;;13.60;35.70;;;12.31;35.71;100632.66;12261846;19;19922;-83
2023/05/15 03:46:06;;;;;;;;;;;13.60;35.80;;;12.46;35.87;100657.00;12265586;19;19982;-83
2023/05/15 03:50:08;;;;;;;;;;;13.50;35.80;;;12.53;35.89;100667.91;12262238;19;19903;-83
2023/05/15 03:54:10;;;;;;;;;;;13.50;35.80;;;12.51;35.84;100675.06;12265830;19;19970;-83
2023/05/15 03:58:12;;;;;;;;;;;13.60;35.70;;;12.43;36.00;100659.81;12262147;19;19990;-83
2023/05/15 04:02:13;;;;;;;;;;;13.50;35.90;;;12.35;36.12;100646.38;12258341;19;19942;-83
2023/05/15 04:06:15;;;;;;;;;;;13.70;36.00;;;12.47;35.96;100674.38;12260171;19;19915;-83
2023/05/15 04:10:16;;;;;;;;;;;13.50;36.80;;;12.20;36.17;100619.38;12259227;19;19914;-83
2023/05/15 04:14:18;;;;;;;;;;;13.50;36.20;;;12.33;36.20;100651.69;12264978;19;19914;-83
2023/05/15 04:18:20;;;;;;;;;;;13.50;36.10;;;12.36;36.17;100656.75;12263524;19;19914;-83
2023/05/15 04:22:21;;;;;;;;;;;13.50;36.30;;;12.42;36.29;100659.91;12261926;19;19947;-83
2023/05/15 04:26:24;;;;;;;;;;;13.50;36.30;;;12.45;36.37;100651.84;12263117;19;20329;-83
2023/05/15 04:30:25;;;;;;;;;;;13.50;36.30;;;12.44;36.45;100647.56;12258776;19;19967;-83
2023/05/15 04:34:28;;;;;;;;;;;13.50;36.40;;;12.48;36.32;100641.22;12253438;19;19919;-83
2023/05/15 04:38:30;;;;;;;;;;;13.60;36.30;;;12.40;36.38;100625.97;12261688;19;19939;-83
2023/05/15 04:42:31;;;;;;;;;;;13.60;36.40;;;12.50;36.58;100644.53;12253570;19;19914;-83
2023/05/15 04:46:33;;;;;;;;;;;13.60;36.40;;;12.54;36.54;100649.50;12260001;19;19992;-83
2023/05/15 04:50:35;;;;;;;;;;;13.60;36.70;;;12.37;36.58;100611.31;12259323;19;19915;-83
2023/05/15 04:54:37;;;;;;;;;;;13.70;37.00;;;12.60;36.66;100637.78;12263461;19;20320;-83
2023/05/15 04:58:39;;;;;;;;;;;13.80;37.00;;;12.67;36.73;100633.00;12264563;19;20343;-83
2023/05/15 05:02:43;;;;;;;;;;;13.80;37.10;;;12.75;36.88;100642.03;12261529;19;19953;-83
2023/05/15 05:06:48;;;;;;;;;;;13.90;37.10;;;12.86;36.93;100633.47;12260359;19;19919;-84
2023/05/15 05:10:55;;;;;;;;;;;14.00;37.20;;;12.64;36.90;100586.88;12261240;19;20317;-83
2023/05/15 05:14:56;;;;;;;;;;;14.10;37.90;;;13.06;36.98;100629.50;12262022;19;19915;-83
2023/05/15 05:18:58;;;;;;;;;;;14.20;37.90;;;13.13;37.06;100630.78;12258281;19;19961;-83
2023/05/15 05:22:59;;;;;;;;;;;14.30;37.70;;;12.89;37.10;100580.00;12262290;19;19918;-83
2023/05/15 05:27:01;;;;;;;;;;;14.40;37.80;;;13.19;37.00;100616.41;12261085;19;20593;-83
2023/05/15 05:31:03;;;;;;;;;;;14.50;37.80;;;13.34;37.26;100631.13;12257344;19;19911;-84
2023/05/15 05:35:05;;;;;;;;;;;14.50;38.00;;;13.30;37.17;100606.03;12258641;19;19911;-85
2023/05/15 05:39:07;;;;;;;;;;;14.60;37.80;;;13.38;37.20;100600.28;12258779;19;19919;-85
2023/05/15 05:43:08;;;;;;;;;;;14.70;38.10;;;13.57;37.26;100610.34;12258515;19;19923;-86
2023/05/15 05:47:10;;;;;;;;;;;14.80;38.00;;;13.64;37.45;100608.97;12258610;19;19915;-86
2023/05/15 05:51:11;;;;;;;;;;;14.90;37.80;;;13.54;37.42;100582.53;12252950;19;19923;-85
2023/05/15 05:55:13;;;;;;;;;;;15.00;38.00;;;13.56;37.47;100564.06;12250100;19;20270;-85
2023/05/15 05:59:15;;;;;;;;;;;15.10;38.00;;;13.82;37.58;100585.81;12245902;19;19918;-85
2023/05/15 06:03:16;;;;;;;;;;;15.20;38.40;;;13.99;37.69;100588.09;12248927;19;19926;-85
2023/05/15 06:07:18;;;;;;;;;;;15.30;38.30;;;13.99;37.64;100579.34;12246703;19;20333;-84
2023/05/15 06:11:20;;;;;;;;;;;15.30;38.60;;;14.01;37.56;100567.81;12246710;19;19946;-86
2023/05/15 06:15:22;;;;;;;;;;;15.40;38.50;;;14.31;37.74;100598.03;12248375;19;19919;-85
2023/05/15 06:19:23;;;;;;;;;;;15.60;38.40;;;14.29;37.82;100568.44;12247534;19;19923;-86
2023/05/15 06:23:25;;;;;;;;;;;15.70;39.00;;;14.45;37.74;100571.63;12251728;19;19982;-86
2023/05/15 06:27:28;;;;;;;;;;;15.80;38.60;;;14.58;37.87;100572.41;12251766;19;20313;-86
2023/05/15 06:31:29;;;;;;;;;;;15.90;38.30;;;14.48;37.87;100542.47;12250753;19;19918;-87
2023/05/15 06:35:31;;;;;;;;;;;16.00;38.70;;;14.83;37.93;100581.94;12253332;19;19943;-86
2023/05/15 06:39:32;;;;;;;;;;;16.10;40.10;;;14.66;37.94;100534.19;12255062;19;19915;-85
2023/05/15 06:43:34;;;;;;;;;;;16.20;38.90;;;15.05;37.97;100573.25;12253006;19;19926;-85
2023/05/15 06:47:35;;;;;;;;;;;16.30;38.60;;;15.08;38.05;100550.28;12256667;19;19942;-86
2023/05/15 06:51:37;;;;;;;;;;;16.40;38.30;;;15.24;38.03;100563.94;12247550;19;19929;-86
2023/05/15 06:55:39;;;;;;;;;;;16.50;38.20;;;15.36;38.19;100554.25;12254449;19;19959;-86
2023/05/15 06:59:40;;;;;;;;;;;16.60;38.10;;;15.39;37.99;100538.22;12261541;19;19919;-86
2023/05/15 07:03:42;;;;;;;;;;;16.80;38.00;;;15.48;38.02;100538.34;12264430;19;19911;-86
2023/05/15 07:07:44;;;;;;;;;;;16.90;37.90;;;15.64;38.02;100543.22;12267087;19;19922;-84
2023/05/15 07:11:46;;;;;;;;;;;17.00;38.00;;;15.66;38.14;100532.56;12263022;19;19915;-85
2023/05/15 07:15:48;;;;;;;;;;;17.10;37.90;;;15.76;38.06;100533.53;12268930;19;19922;-84
2023/05/15 07:19:49;;;;;;;;;;;17.10;37.80;;;15.79;38.04;100522.75;12263913;19;19931;-85
2023/05/15 07:23:51;;;;;;;;;;;17.20;37.80;;;15.79;37.97;100504.31;12265189;19;19911;-85
2023/05/15 07:27:53;;;;;;;;;;;17.30;38.10;;;15.75;38.23;100481.84;12264078;19;19922;-86
2023/05/15 07:31:54;;;;;;;;;;;17.30;38.00;;;16.05;38.34;100509.28;12261836;19;19978;-86
2023/05/15 07:35:56;;;;;;;;;;;17.50;38.40;;;16.10;38.30;100501.84;12264845;19;20412;-86
2023/05/15 07:39:57;;;;;;;;;;;17.50;38.00;;;16.32;38.00;100516.72;12263419;19;19918;-85
2023/05/15 07:43:59;;;;;;;;;;;17.60;37.90;;;16.24;38.20;100498.06;12264129;19;19911;-85
2023/05/15 07:48:12;;;;;;;;;;;17.70;37.70;;;16.42;38.38;100511.50;12263706;19;19949;-85
2023/05/15 07:52:14;;;;;;;;;;;17.70;37.80;;;16.48;38.20;100505.75;12258670;19;20357;-85
2023/05/15 07:56:16;;;;;;;;;;;17.90;37.80;;;16.47;38.24;100501.41;12261674;19;19922;-86
2023/05/15 08:00:18;;;;;;;;;;;17.90;37.80;;;16.68;38.31;100514.59;12256668;19;20258;-85
2023/05/15 08:04:20;;;;;;;;;;;17.90;37.80;;;16.71;38.29;100504.63;12261538;19;20233;-86
2023/05/15 08:08:22;;;;;;;;;;;18.00;38.00;;;16.81;38.14;100510.84;12258534;19;19923;-85
2023/05/15 08:12:25;;;;;;;;;;;18.10;38.00;;;16.89;38.33;100504.91;12256106;19;20308;-85
2023/05/15 08:16:26;;;;;;;;;;;18.20;38.00;;;16.86;38.26;100484.06;12257459;19;19926;-85
2023/05/15 08:20:28;;;;;;;;;;;18.20;38.00;;;17.01;38.23;100481.91;12256934;19;19914;-85
2023/05/15 08:24:29;;;;;;;;;;;18.30;38.20;;;17.10;38.41;100486.41;12258295;19;19926;-85
2023/05/15 08:28:32;;;;;;;;;;;18.40;38.10;;;17.03;38.35;100450.97;12258961;19;19924;-86
2023/05/15 08:32:33;;;;;;;;;;;18.50;38.00;;;17.13;38.35;100457.13;12248815;19;20261;-86
2023/05/15 08:36:35;;;;;;;;;;;18.50;38.00;;;17.17;38.28;100450.59;12259882;19;19922;-87
2023/05/15 08:40:37;;;;;;;;;;;18.60;37.90;;;17.35;38.44;100463.16;12255157;19;19923;-85
2023/05/15 08:44:39;;;;;;;;;;;18.70;38.00;;;17.34;38.52;100450.94;12257258;19;19948;-87
2023/05/15 08:48:41;;;;;;;;;;;18.70;37.90;;;17.48;38.58;100447.91;12257092;19;19940;-87
2023/05/15 08:52:45;;;;;;;;;;;18.80;37.80;;;17.35;38.58;100426.19;12251630;19;19936;-88
2023/05/15 08:56:47;;;;;;;;;;;18.80;38.10;;;17.62;38.46;100449.31;12257705;19;19971;-88
2023/05/15 09:00:49;;;;;;;;;;;18.90;37.90;;;17.62;38.26;100441.38;12252576;19;19930;-88
2023/05/15 09:04:50;;;;;;;;;;;19.00;37.90;;;17.76;38.39;100445.44;12254413;19;19930;-85
2023/05/15 09:08:55;;;;;;;;;;;19.00;37.80;;;17.77;38.38;100431.25;12252987;19;19978;-86
2023/05/15 09:12:56;;;;;;;;;;;19.10;37.80;;;17.77;38.28;100420.66;12255685;19;19944;-85
2023/05/15 09:16:58;;;;;;;;;;;19.10;37.70;;;17.75;38.49;100404.97;12255395;19;19942;-86
2023/05/15 09:21:27;;;;;;;;;;;19.20;37.70;;;18.07;38.32;100439.06;12248855;19;19935;-87
2023/05/15 09:25:41;;;;;;;;;;;19.30;37.80;;;18.19;38.44;100449.50;12255848;19;19927;-87
2023/05/15 09:29:44;;;;;;;;;;;19.40;37.60;;;18.15;38.49;100425.16;12254165;19;19978;-87
2023/05/15 09:33:45;;;;;;;;;;;19.50;37.60;;;18.21;38.30;100419.31;12255538;19;19934;-87
2023/05/15 09:37:56;;;;;;;;;;;19.60;37.70;;;18.40;38.60;100438.75;12252924;19;19923;-87
2023/05/15 09:42:11;;;;;;;;;;;19.70;37.60;;;18.47;38.29;100445.97;12251056;19;19986;-88
2023/05/15 09:46:14;;;;;;;;;;;19.80;37.70;;;18.54;38.21;100441.75;12255309;19;19919;-88
2023/05/15 09:50:24;;;;;;;;;;;19.80;37.80;;;18.53;38.30;100418.94;12255868;19;19935;-86
2023/05/15 09:54:26;;;;;;;;;;;19.90;37.70;;;18.44;38.23;100398.63;12252541;19;20316;-86
2023/05/15 09:58:28;;;;;;;;;;;19.90;37.80;;;18.62;38.43;100416.41;12255724;19;20333;-88
2023/05/15 10:02:31;;;;;;;;;;;20.00;37.80;;;18.66;38.44;100407.19;12250031;19;19953;-86
2023/05/15 10:06:44;;;;;;;;;;;20.00;37.80;;;18.80;38.43;100427.94;12252873;19;19974;-86
2023/05/15 10:10:47;;;;;;;;;;;20.10;37.60;;;18.84;38.24;100424.00;12249253;19;19923;-86
2023/05/15 10:14:50;;;;;;;;;;;20.10;37.70;;;18.84;38.25;100413.44;12250497;19;19939;-86
2023/05/15 10:18:51;;;;;;;;;;;20.20;37.60;;;18.84;38.46;100410.78;12247336;19;19986;-86
2023/05/15 10:22:55;;;;;;;;;;;20.20;37.50;;;18.95;38.44;100421.19;12246566;19;19914;-87
2023/05/15 10:26:57;;;;;;;;;;;20.20;37.40;;;18.98;38.21;100418.25;12248860;19;19914;-85
2023/05/15 10:31:00;;;;;;;;;;;20.20;37.40;;;18.92;38.34;100400.31;12248108;19;19939;-84
2023/05/15 10:35:02;;;;;;;;;;;20.30;37.50;;;18.67;38.17;100356.00;12259994;19;19922;-85
2023/05/15 10:39:06;;;;;;;;;;;20.30;37.70;;;19.06;38.29;100401.63;12261491;19;19922;-84
2023/05/15 10:43:10;;;;;;;;;;;20.30;37.60;;;19.08;38.17;100406.78;12261244;19;19914;-84
2023/05/15 10:47:12;;;;;;;;;;;20.40;37.80;;;18.98;38.55;100385.66;12261662;19;19915;-85
2023/05/15 10:51:18;;;;;;;;;;;20.40;37.90;;;19.10;38.44;100384.47;12255191;19;19923;-84
2023/05/15 10:55:21;;;;;;;;;;;20.40;37.60;;;19.27;38.50;100411.97;12262579;19;19925;-84
2023/05/15 10:59:30;;;;;;;;;;;20.50;37.90;;;19.30;38.46;100402.88;12257864;19;19915;-85
2023/05/15 11:03:36;;;;;;;;;;;20.50;38.00;;;19.26;38.20;100388.28;12261457;19;19943;-85
2023/05/15 11:07:39;;;;;;;;;;;20.60;38.00;;;19.34;38.54;100385.72;12260270;19;19923;-85
2023/05/15 11:12:03;;;;;;;;;;;20.60;38.00;;;19.48;38.29;100397.63;12257939;19;19939;-84
2023/05/15 11:16:05;;;;;;;;;;;20.70;38.00;;;19.43;38.51;100372.41;12262023;19;19978;-84
2023/05/15 11:20:06;;;;;;;;;;;20.70;38.10;;;19.58;38.32;100369.25;12257753;19;19918;-84
2023/05/15 11:24:10;;;;;;;;;;;20.80;38.20;;;19.71;38.55;100372.34;12259182;19;20363;-85
2023/05/15 11:28:20;;;;;;;;;;;20.80;38.40;;;19.80;38.54;100358.19;12260261;19;19919;-84
2023/05/15 11:32:42;;;;;;;;;;;21.00;38.40;;;19.91;38.45;100351.81;12254950;19;19931;-84
2023/05/15 11:36:43;;;;;;;;;;;21.10;38.10;;;19.99;38.67;100341.28;12257472;19;19931;-84
2023/05/15 11:40:52;;;;;;;;;;;21.20;38.70;;;20.23;38.29;100353.88;12257175;19;19939;-84
2023/05/15 11:44:53;;;;;;;;;;;21.40;38.30;;;20.32;38.57;100337.00;12259185;19;20325;-85
2023/05/15 11:48:55;;;;;;;;;;;21.50;38.40;;;20.29;38.82;100309.97;12257564;19;19923;-84
2023/05/15 11:52:57;;;;;;;;;;;21.70;38.00;;;20.63;38.58;100336.53;12252442;19;19930;-85
2023/05/15 11:56:58;;;;;;;;;;;21.80;38.00;;;20.69;38.51;100333.22;12260173;19;19911;-84
2023/05/15 12:01:00;;;;;;;;;;;21.90;37.80;;;20.80;38.41;100334.78;12256023;19;19982;-85
2023/05/15 12:05:05;;;;;;;;;;;22.00;37.60;;;20.84;38.53;100325.47;12259747;19;19919;-85
2023/05/15 12:09:13;;;;;;;;;;;22.00;37.50;;;20.88;38.61;100324.19;12258122;19;19918;-84
2023/05/15 12:13:17;;;;;;;;;;;22.10;37.50;;;20.99;38.45;100325.69;12252645;19;20591;-83
2023/05/15 12:17:18;;;;;;;;;;;22.20;37.50;;;21.00;38.52;100317.56;12259509;19;19926;-85
2023/05/15 12:21:20;;;;;;;;;;;22.30;37.40;;;20.97;38.23;100298.47;12253292;19;19960;-84
2023/05/15 12:25:22;;;;;;;;;;;22.30;37.30;;;21.18;38.34;100314.78;12258877;19;19922;-85
2023/05/15 12:29:25;;;;;;;;;;;22.30;37.20;;;21.20;38.26;100312.81;12255032;19;19934;-84
2023/05/15 12:33:26;;;;;;;;;;;22.40;37.10;;;21.29;38.29;100307.50;12256650;19;19915;-84
2023/05/15 12:37:32;;;;;;;;;;;22.50;37.10;;;21.40;38.35;100310.69;12255705;19;19923;-84
2023/05/15 12:41:36;;;;;;;;;;;22.60;36.90;;;21.42;38.52;100307.88;12251485;19;19983;-85
2023/05/15 12:45:38;;;;;;;;;;;22.70;36.90;;;21.53;38.30;100307.53;12255691;19;19955;-84
2023/05/15 12:49:41;;;;;;;;;;;22.70;36.90;;;21.53;38.42;100286.28;12256369;19;19923;-84
2023/05/15 12:53:42;;;;;;;;;;;22.80;36.70;;;21.65;37.85;100289.41;12255247;19;19953;-84
2023/05/15 12:57:44;;;;;;;;;;;22.90;36.60;;;21.76;38.16;100304.19;12254001;19;20270;-85
2023/05/15 13:01:45;;;;;;;;;;;22.90;36.60;;;21.76;38.29;100280.28;12254001;19;19923;-84
2023/05/15 13:05:47;;;;;;;;;;;23.00;36.50;;;21.69;37.91;100252.72;12255001;19;19923;-84
2023/05/15 13:10:03;;;;;;;;;;;23.00;36.50;;;21.96;37.75;100294.88;12253083;19;19919;-85
2023/05/15 13:14:10;;;;;;;;;;;23.10;36.40;;;21.97;37.90;100282.41;12253203;19;19915;-84
2023/05/15 13:18:13;;;;;;;;;;;23.10;36.30;;;21.90;37.71;100271.63;12255955;19;19978;-84
2023/05/15 13:22:15;;;;;;;;;;;23.10;36.30;;;22.03;37.65;100287.03;12251109;19;19919;-83
2023/05/15 13:26:17;;;;;;;;;;;23.20;36.30;;;22.00;37.72;100269.59;12252780;19;19911;-83
2023/05/15 13:30:18;;;;;;;;;;;23.20;36.20;;;22.01;37.71;100268.59;12252077;19;19952;-84
2023/05/15 13:34:20;;;;;;;;;;;23.20;36.20;;;22.12;37.68;100269.25;12252484;19;19922;-84
2023/05/15 13:38:22;;;;;;;;;;;23.20;35.70;;;22.08;37.82;100255.44;12253195;19;20252;-83
2023/05/15 13:42:24;;;;;;;;;;;23.20;36.00;;;22.14;37.40;100278.69;12246828;19;20363;-84
2023/05/15 13:46:25;;;;;;;;;;;23.30;36.10;;;22.07;37.57;100294.50;12252576;19;19914;-83
2023/05/15 13:50:26;;;;;;;;;;;23.20;36.30;;;21.80;37.63;100292.25;12247680;19;19915;-83
2023/05/15 13:54:28;;;;;;;;;;;23.10;35.90;;;21.54;37.44;100316.34;12253263;19;19919;-84
2023/05/15 13:58:29;;;;;;;;;;;22.90;35.90;;;21.38;37.27;100349.84;12253849;19;19915;-84
2023/05/15 14:02:31;;;;;;;;;;;22.70;36.20;;;20.87;37.30;100305.75;12252840;19;20305;-84
2023/05/15 14:06:33;;;;;;;;;;;22.40;36.60;;;20.81;37.95;100333.75;12256367;19;19914;-85
2023/05/15 14:10:36;;;;;;;;;;;22.10;37.00;;;20.61;37.61;100335.84;12252886;19;20265;-84
2023/05/15 14:14:37;;;;;;;;;;;21.90;37.40;;;20.11;38.06;100304.72;12257015;19;19910;-84
2023/05/15 14:18:39;;;;;;;;;;;21.60;38.60;;;20.07;38.17;100332.56;12245719;19;19918;-88
2023/05/15 14:22:41;;;;;;;;;;;21.40;38.20;;;19.88;37.98;100326.47;12245478;19;19952;-88
2023/05/15 14:26:43;;;;;;;;;;;21.20;38.40;;;19.85;38.21;100347.97;12239897;19;19918;-88
2023/05/15 14:30:45;;;;;;;;;;;21.00;39.20;;;19.73;38.16;100364.25;12246456;19;19932;-88
2023/05/15 14:34:47;;;;;;;;;;;20.80;38.30;;;19.65;38.12;100372.94;12247077;19;19923;-87
2023/05/15 14:38:48;;;;;;;;;;;20.70;38.70;;;19.49;38.42;100362.19;12247776;19;19915;-87
2023/05/15 14:42:49;;;;;;;;;;;20.60;39.80;;;19.47;38.24;100375.59;12242603;19;20574;-88
2023/05/15 14:47:05;;;;;;;;;;;20.40;39.30;;;19.38;38.38;100361.44;12249661;19;19916;-86
2023/05/15 14:51:07;;;;;;;;;;;20.30;39.00;;;19.20;38.46;100344.72;12247545;19;19939;-86
2023/05/15 14:55:09;;;;;;;;;;;20.20;39.60;;;19.16;38.31;100338.06;12246015;19;20415;-85
2023/05/15 14:59:13;;;;;;;;;;;20.10;38.50;;;19.05;38.19;100328.50;12246064;19;19926;-87
2023/05/15 15:03:15;;;;;;;;;;;20.00;39.00;;;18.86;38.54;100289.78;12247273;19;20365;-86
2023/05/15 15:07:16;;;;;;;;;;;20.00;39.70;;;18.96;38.65;100303.78;12245460;19;19915;-87
2023/05/15 15:11:18;;;;;;;;;;;20.00;39.50;;;18.98;38.34;100291.25;12244233;19;19927;-87
2023/05/15 15:15:20;;;;;;;;;;;20.00;39.30;;;19.10;38.34;100314.84;12246948;19;19944;-87
2023/05/15 15:19:22;;;;;;;;;;;20.00;39.20;;;19.30;38.62;100334.88;12251073;19;19917;-87
2023/05/15 15:23:24;;;;;;;;;;;20.00;39.30;;;19.12;38.35;100295.19;12255215;19;20392;-87
2023/05/15 15:27:26;;;;;;;;;;;20.00;39.30;;;19.33;38.74;100318.69;12258868;19;19918;-87
2023/05/15 15:31:29;;;;;;;;;;;20.10;39.30;;;19.35;38.40;100315.91;12256351;19;19943;-87
2023/05/15 15:35:30;;;;;;;;;;;20.10;39.20;;;19.31;38.44;100318.03;12256437;19;19922;-87
2023/05/15 15:39:32;;;;;;;;;;;20.10;39.50;;;19.29;38.60;100316.50;12258687;19;20238;-86
2023/05/15 15:43:33;;;;;;;;;;;20.10;39.30;;;19.29;38.89;100309.38;12258219;19;19921;-87
2023/05/15 15:47:35;;;;;;;;;;;20.10;39.40;;;19.33;38.89;100310.72;12256751;19;19921;-86
2023/05/15 15:51:36;;;;;;;;;;;20.10;39.40;;;19.32;38.90;100303.78;12251687;19;19986;-86
2023/05/15 15:55:38;;;;;;;;;;;20.20;39.50;;;19.42;38.52;100314.31;12254470;19;19932;-86
2023/05/15 15:59:39;;;;;;;;;;;20.20;39.60;;;19.11;38.56;100263.56;12245325;19;19927;-87
2023/05/15 16:03:41;;;;;;;;;;;20.10;39.50;;;19.35;38.62;100303.47;12254305;19;19919;-87
2023/05/15 16:07:42;;;;;;;;;;;20.10;39.50;;;19.21;38.80;100272.25;12254783;19;19911;-86
2023/05/15 16:11:43;;;;;;;;;;;20.10;39.40;;;19.09;39.13;100255.78;12247301;19;19927;-87
2023/05/15 16:15:45;;;;;;;;;;;20.10;39.50;;;19.04;38.96;100228.06;12255239;19;19907;-87
2023/05/15 16:19:46;;;;;;;;;;;20.10;39.70;;;19.26;39.15;100256.75;12252524;19;19930;-87
2023/05/15 16:23:47;;;;;;;;;;;20.10;39.70;;;19.30;39.03;100263.38;12254120;19;19927;-86
2023/05/15 16:27:49;;;;;;;;;;;20.10;39.70;;;18.92;39.24;100201.84;12254417;19;19923;-86
2023/05/15 16:31:51;;;;;;;;;;;20.20;39.70;;;19.34;38.88;100272.69;12238355;19;19990;-87
2023/05/15 16:35:53;;;;;;;;;;;20.20;39.70;;;19.37;39.23;100275.03;12245180;19;20344;-87
2023/05/15 16:39:54;;;;;;;;;;;20.20;39.70;;;19.43;39.20;100285.00;12252095;19;19927;-87
2023/05/15 16:43:56;;;;;;;;;;;20.20;39.70;;;19.42;39.30;100290.47;12253712;19;19915;-87
2023/05/15 16:47:57;;;;;;;;;;;20.20;39.70;;;19.43;39.42;100295.59;12252209;19;19947;-87
2023/05/15 16:51:58;;;;;;;;;;;20.30;39.80;;;19.34;39.44;100283.28;12249327;19;19915;-87
2023/05/15 16:56:00;;;;;;;;;;;20.30;39.70;;;19.48;39.51;100315.53;12252022;19;19911;-86
2023/05/15 17:00:02;;;;;;;;;;;20.30;40.10;;;19.49;39.30;100330.41;12250585;19;19940;-87
2023/05/15 17:04:03;;;;;;;;;;;20.30;39.80;;;19.38;39.34;100321.72;12253337;19;19926;-87
2023/05/15 17:08:05;;;;;;;;;;;20.30;39.70;;;19.39;39.42;100328.69;12250891;19;20335;-87
2023/05/15 17:12:06;;;;;;;;;;;20.30;39.70;;;19.32;39.29;100340.03;12252304;19;19930;-87
2023/05/15 17:16:08;;;;;;;;;;;20.30;39.80;;;19.09;39.40;100308.72;12251652;19;19910;-87
2023/05/15 17:20:10;;;;;;;;;;;20.20;40.20;;;19.18;39.37;100344.03;12252069;19;19921;-86
2023/05/15 17:24:13;;;;;;;;;;;20.00;40.10;;;19.13;39.79;100336.53;12250052;19;19918;-87
2023/05/15 17:28:15;;;;;;;;;;;20.10;40.00;;;18.90;39.78;100306.16;12251743;19;19933;-87
2023/05/15 17:32:17;;;;;;;;;;;20.00;40.00;;;18.99;39.51;100323.81;12248761;19;20265;-88
2023/05/15 17:36:18;;;;;;;;;;;20.00;40.30;;;18.97;39.96;100321.31;12252924;19;19923;-87
2023/05/15 17:40:20;;;;;;;;;;;20.00;40.20;;;19.07;40.00;100338.97;12247259;19;19943;-86
2023/05/15 17:44:26;;;;;;;;;;;19.90;40.40;;;19.06;39.70;100338.09;12251337;19;20003;-87
2023/05/15 17:48:28;;;;;;;;;;;19.90;40.30;;;19.08;39.73;100343.25;12250813;19;19935;-85
2023/05/15 17:52:29;;;;;;;;;;;19.90;40.30;;;18.89;39.84;100323.88;12247909;19;19910;-88
2023/05/15 17:56:31;;;;;;;;;;;19.90;40.30;;;19.00;39.83;100350.13;12238120;19;20400;-88
2023/05/15 18:00:32;;;;;;;;;;;19.90;40.60;;;18.88;39.91;100337.25;12240723;19;19919;-87
2023/05/15 18:04:34;;;;;;;;;;;19.80;40.50;;;18.93;39.97;100340.28;12245947;19;19936;-87
2023/05/15 18:08:35;;;;;;;;;;;19.90;40.60;;;18.99;40.28;100339.69;12234381;19;19922;-87
2023/05/15 18:12:37;;;;;;;;;;;19.80;40.70;;;18.98;39.99;100338.88;12227298;19;19922;-86